Time;durP1;ratioP1;P1;durP2;ratioP2;P2;SDS_P1;SDS_P2;PMS_P1;PMS_P2;Temp;Humidity;BMP_temperature;BMP_pressure;BME280_temperature;BME280_humidity;BME280_pressure;Samples;Min_cycle;Max_cycle;Signal;HPM_P1;HPM_P2
2022/07/06 00:00:15;;;;;;;27.80;3.50;;;19.10;22.50;;;;;;5058717;28;20480;-72
2022/07/06 00:02:42;;;;;;;24.27;4.00;;;19.10;22.60;;;;;;5050533;28;20798;-71
2022/07/06 00:05:09;;;;;;;24.20;3.67;;;19.00;22.40;;;;;;5055150;28;20469;-71
2022/07/06 00:07:36;;;;;;;25.60;3.93;;;19.00;22.30;;;;;;5064327;28;20485;-71
2022/07/06 00:10:03;;;;;;;24.60;4.00;;;19.00;22.40;;;;;;5054091;28;20472;-72
2022/07/06 00:12:29;;;;;;;26.00;3.83;;;19.00;22.50;;;;;;5057235;28;20455;-71
2022/07/06 00:14:57;;;;;;;24.70;4.00;;;18.90;22.40;;;;;;5048792;28;20462;-72
2022/07/06 00:17:24;;;;;;;25.20;3.90;;;18.90;22.50;;;;;;5062995;28;20485;-71
2022/07/06 00:19:51;;;;;;;26.57;4.00;;;18.90;22.60;;;;;;5056851;28;20480;-71
2022/07/06 00:22:18;;;;;;;24.40;4.30;;;18.90;22.60;;;;;;5070472;28;20480;-72
2022/07/06 00:24:44;;;;;;;23.90;3.80;;;18.90;23.00;;;;;;5058698;28;20497;-71
2022/07/06 00:27:11;;;;;;;23.33;3.40;;;18.80;23.20;;;;;;5053111;28;20477;-72
2022/07/06 00:29:43;;;;;;;24.33;3.60;;;18.70;23.40;;;;;;5053525;28;20469;-72
2022/07/06 00:32:11;;;;;;;24.37;3.60;;;18.70;23.50;;;;;;5053164;28;20985;-71
2022/07/06 00:34:39;;;;;;;25.70;3.83;;;18.70;23.80;;;;;;5061534;28;20465;-71
2022/07/06 00:37:06;;;;;;;25.93;3.40;;;18.60;24.20;;;;;;5050295;28;20481;-71
2022/07/06 00:39:33;;;;;;;24.50;3.40;;;18.40;24.60;;;;;;5067702;28;20464;-71
2022/07/06 00:42:00;;;;;;;24.10;3.53;;;18.40;24.90;;;;;;5056805;28;20488;-71
2022/07/06 00:44:28;;;;;;;25.13;3.70;;;18.30;25.00;;;;;;5064148;28;20942;-71
2022/07/06 00:46:55;;;;;;;26.23;4.20;;;18.20;25.70;;;;;;5051659;28;20482;-71
2022/07/06 00:52:08;;;;;;;23.10;3.87;;;18.00;26.50;;;;;;5048324;28;20470;-71
2022/07/06 00:54:36;;;;;;;22.60;4.07;;;17.90;26.40;;;;;;5043834;28;20458;-71
2022/07/06 00:57:04;;;;;;;23.83;3.40;;;17.80;26.80;;;;;;5051346;28;20470;-72
2022/07/06 00:59:30;;;;;;;23.07;3.43;;;17.80;27.30;;;;;;5066928;28;20457;-71
2022/07/06 01:01:58;;;;;;;23.17;3.60;;;17.80;27.40;;;;;;5041349;28;20481;-71
2022/07/06 01:04:26;;;;;;;23.17;4.00;;;17.70;27.80;;;;;;5056458;28;20461;-72
2022/07/06 01:06:53;;;;;;;23.13;3.77;;;17.70;27.90;;;;;;5052780;28;20497;-70
2022/07/06 01:09:20;;;;;;;25.73;4.33;;;17.70;28.30;;;;;;5046840;28;20485;-71
2022/07/06 01:11:47;;;;;;;23.70;4.20;;;17.60;28.50;;;;;;5061403;28;20458;-70
2022/07/06 01:14:15;;;;;;;23.70;4.00;;;17.60;28.70;;;;;;5059409;28;20469;-70
2022/07/06 01:16:42;;;;;;;23.40;4.27;;;17.60;28.80;;;;;;5061506;28;20853;-71
2022/07/06 01:19:09;;;;;;;24.20;4.17;;;17.60;29.20;;;;;;5057377;28;20470;-71
2022/07/06 01:21:39;;;;;;;23.53;3.57;;;17.60;29.00;;;;;;5062190;28;20476;-71
2022/07/06 01:24:06;;;;;;;24.00;3.77;;;17.60;28.80;;;;;;5064673;28;20506;-72
2022/07/06 01:26:33;;;;;;;24.60;3.90;;;17.50;28.80;;;;;;5069291;28;20480;-71
2022/07/06 01:29:00;;;;;;;25.20;3.90;;;17.50;29.10;;;;;;5062999;28;20468;-71
2022/07/06 01:31:27;;;;;;;25.97;4.43;;;17.50;28.80;;;;;;5054114;28;20991;-71
2022/07/06 01:33:56;;;;;;;25.90;3.97;;;17.50;29.10;;;;;;5055758;28;20465;-71
2022/07/06 01:36:23;;;;;;;26.73;4.20;;;17.50;28.70;;;;;;5057981;28;20483;-71
2022/07/06 01:38:53;;;;;;;26.13;4.60;;;17.50;28.60;;;;;;5069056;28;20477;-71
2022/07/06 01:41:21;;;;;;;24.60;4.30;;;17.50;28.80;;;;;;5051217;28;20484;-71
2022/07/06 01:43:48;;;;;;;25.37;4.00;;;17.60;28.70;;;;;;5064302;28;21012;-71
2022/07/06 01:46:15;;;;;;;25.90;4.33;;;17.60;28.90;;;;;;5055003;28;20488;-71
2022/07/06 01:48:42;;;;;;;25.13;4.43;;;17.60;28.90;;;;;;5047634;28;20461;-70
2022/07/06 01:51:09;;;;;;;25.93;3.87;;;17.60;29.60;;;;;;5064692;28;20469;-72
2022/07/06 01:53:36;;;;;;;27.57;4.23;;;17.70;28.90;;;;;;5057098;28;20489;-71
2022/07/06 01:56:05;;;;;;;24.70;3.70;;;17.70;29.10;;;;;;5065718;28;20477;-71
2022/07/06 01:58:31;;;;;;;24.93;4.07;;;17.70;29.30;;;;;;5060902;28;20461;-71
2022/07/06 02:00:58;;;;;;;26.60;4.53;;;17.70;29.40;;;;;;5056868;28;20473;-71
2022/07/06 02:03:25;;;;;;;25.77;4.20;;;17.70;29.30;;;;;;5050213;28;20462;-71
2022/07/06 02:05:53;;;;;;;26.23;3.97;;;17.70;29.30;;;;;;5051864;28;20474;-71
2022/07/06 02:08:19;;;;;;;24.97;4.23;;;17.60;29.40;;;;;;5056708;28;20469;-70
2022/07/06 02:10:46;;;;;;;25.00;4.30;;;17.60;29.30;;;;;;5053456;28;20493;-71
2022/07/06 02:13:14;;;;;;;27.90;4.30;;;17.60;29.30;;;;;;5061561;28;20480;-71
2022/07/06 02:15:41;;;;;;;26.90;4.53;;;17.60;29.40;;;;;;5057742;28;20480;-72
2022/07/06 02:18:08;;;;;;;25.40;4.00;;;17.50;29.50;;;;;;5068816;28;20468;-72
2022/07/06 02:20:35;;;;;;;26.23;4.87;;;17.50;29.80;;;;;;5052818;28;20467;-72
2022/07/06 02:23:01;;;;;;;25.67;4.33;;;17.40;29.90;;;;;;5054271;28;20481;-71
2022/07/06 02:25:28;;;;;;;29.50;4.03;;;17.30;30.50;;;;;;5051965;28;21004;-71
2022/07/06 02:27:55;;;;;;;28.77;4.87;;;17.20;30.20;;;;;;5054139;28;20970;-71
2022/07/06 02:30:23;;;;;;;26.43;5.40;;;17.30;30.90;;;;;;5055204;28;20465;-71
2022/07/06 02:32:50;;;;;;;32.83;4.83;;;17.20;30.80;;;;;;5055307;28;20460;-71
2022/07/06 02:35:17;;;;;;;27.50;5.20;;;17.10;30.90;;;;;;5055450;28;20465;-71
2022/07/06 02:37:43;;;;;;;27.30;4.67;;;17.10;31.40;;;;;;5061446;28;20484;-71
2022/07/06 02:40:11;;;;;;;26.50;4.90;;;17.10;31.10;;;;;;5051745;28;20463;-71
2022/07/06 02:42:38;;;;;;;25.60;4.53;;;17.00;30.90;;;;;;5052476;28;20489;-71
2022/07/06 02:45:06;;;;;;;28.07;5.60;;;17.00;30.80;;;;;;5046211;28;20469;-71
2022/07/06 02:47:34;;;;;;;27.30;5.23;;;16.90;31.00;;;;;;5053621;28;20482;-71
2022/07/06 02:50:01;;;;;;;26.13;4.80;;;16.90;31.40;;;;;;5050530;28;20473;-71
2022/07/06 02:52:28;;;;;;;26.50;4.83;;;16.90;31.30;;;;;;5064411;28;20457;-71
2022/07/06 02:54:55;;;;;;;27.83;5.80;;;16.80;31.40;;;;;;5059410;28;20473;-70
2022/07/06 02:57:21;;;;;;;29.63;5.90;;;16.80;31.90;;;;;;5053010;28;21028;-71
2022/07/06 02:59:49;;;;;;;29.00;5.63;;;16.80;31.70;;;;;;5052331;28;20468;-72
2022/07/06 03:02:16;;;;;;;28.40;5.10;;;16.80;31.60;;;;;;5050381;28;20479;-71
2022/07/06 03:04:44;;;;;;;27.90;5.50;;;16.80;31.40;;;;;;5054860;28;20808;-70
2022/07/06 03:07:11;;;;;;;27.80;5.20;;;16.80;31.40;;;;;;5045676;28;20486;-72
2022/07/06 03:09:38;;;;;;;26.70;4.97;;;16.80;31.30;;;;;;5065159;28;20461;-70
2022/07/06 03:12:05;;;;;;;31.37;5.93;;;16.90;31.50;;;;;;5062128;28;20464;-71
2022/07/06 03:14:32;;;;;;;27.30;5.57;;;16.90;31.40;;;;;;5067484;28;20944;-71
2022/07/06 03:16:59;;;;;;;28.67;5.93;;;16.80;31.50;;;;;;5057320;28;20859;-70
2022/07/06 03:19:25;;;;;;;27.43;5.30;;;16.80;31.70;;;;;;5048013;28;21013;-71
2022/07/06 03:21:53;;;;;;;28.23;5.87;;;16.80;31.80;;;;;;5061123;28;20473;-72
2022/07/06 03:24:20;;;;;;;31.93;5.83;;;16.70;31.70;;;;;;5048950;28;20893;-72
2022/07/06 03:26:47;;;;;;;26.83;5.10;;;16.70;31.70;;;;;;5071529;28;20479;-72
2022/07/06 03:29:14;;;;;;;29.93;6.40;;;16.70;31.80;;;;;;5049031;28;20465;-68
2022/07/06 03:31:40;;;;;;;27.03;5.17;;;16.70;32.00;;;;;;5053152;28;20474;-65
2022/07/06 03:34:07;;;;;;;28.87;5.60;;;16.60;32.10;;;;;;5055520;28;20464;-67
2022/07/06 03:36:34;;;;;;;28.53;5.60;;;16.60;32.00;;;;;;5051232;28;20486;-67
2022/07/06 03:39:03;;;;;;;28.53;6.60;;;16.60;32.10;;;;;;5055551;28;20897;-68
2022/07/06 03:41:30;;;;;;;28.77;5.57;;;16.60;32.30;;;;;;5046420;28;20658;-66
2022/07/06 03:43:56;;;;;;;26.93;5.30;;;16.60;32.30;;;;;;5049677;28;20458;-66
2022/07/06 03:46:23;;;;;;;29.90;5.90;;;16.60;32.30;;;;;;5052322;28;20470;-65
2022/07/06 03:48:50;;;;;;;27.80;5.93;;;16.60;32.30;;;;;;5067946;28;20460;-65
2022/07/06 03:51:17;;;;;;;29.40;5.63;;;16.60;32.30;;;;;;5062349;28;20453;-71
2022/07/06 03:53:44;;;;;;;30.60;5.60;;;16.60;32.00;;;;;;5053278;28;20449;-71
2022/07/06 03:56:32;;;;;;;29.90;5.93;;;16.70;31.80;;;;;;5043134;28;20893;-72
2022/07/06 03:59:00;;;;;;;29.10;5.70;;;16.70;31.60;;;;;;5049203;28;20608;-70
2022/07/06 04:01:27;;;;;;;29.00;5.67;;;16.70;31.50;;;;;;5049589;28;20470;-72
2022/07/06 04:03:54;;;;;;;27.90;5.80;;;16.80;31.20;;;;;;5061217;28;20483;-71
2022/07/06 04:06:22;;;;;;;29.80;5.87;;;16.80;31.10;;;;;;5068843;28;20834;-72
2022/07/06 04:08:49;;;;;;;28.63;6.10;;;16.90;31.00;;;;;;5055450;28;20464;-71
2022/07/06 04:11:17;;;;;;;29.77;4.97;;;16.90;30.60;;;;;;5058896;28;20818;-71
2022/07/06 04:13:43;;;;;;;33.70;6.17;;;16.90;30.80;;;;;;5053152;28;20451;-71
2022/07/06 04:16:10;;;;;;;32.27;7.17;;;16.90;30.50;;;;;;5068327;28;20483;-71
2022/07/06 04:18:37;;;;;;;30.43;6.13;;;16.80;30.60;;;;;;5069883;28;20472;-71
2022/07/06 04:21:04;;;;;;;29.57;5.60;;;16.80;30.40;;;;;;5045753;28;21142;-72
2022/07/06 04:23:31;;;;;;;28.97;5.10;;;16.80;30.30;;;;;;5042909;28;20489;-71
2022/07/06 04:25:58;;;;;;;34.63;6.63;;;16.90;29.40;;;;;;5062126;28;20492;-71
2022/07/06 04:28:26;;;;;;;32.90;5.77;;;17.00;28.80;;;;;;5069574;28;20467;-72
2022/07/06 04:30:53;;;;;;;31.60;5.97;;;17.10;29.10;;;;;;5068070;28;20461;-71
2022/07/06 04:33:20;;;;;;;29.97;5.37;;;17.20;28.50;;;;;;5053157;28;20474;-71
2022/07/06 04:35:46;;;;;;;30.33;5.10;;;17.30;28.30;;;;;;5069958;28;21020;-71
2022/07/06 04:38:13;;;;;;;30.23;5.10;;;18.10;27.90;;;;;;5067496;28;20857;-72
2022/07/06 04:40:40;;;;;;;31.30;5.07;;;19.20;26.60;;;;;;5063530;28;20454;-72
2022/07/06 04:43:07;;;;;;;30.27;5.13;;;20.20;22.70;;;;;;5048083;28;20488;-71
2022/07/06 04:45:35;;;;;;;31.97;5.00;;;21.10;20.20;;;;;;5061849;28;20526;-73
2022/07/06 04:48:02;;;;;;;32.10;4.93;;;21.80;18.10;;;;;;5058427;28;20472;-72
2022/07/06 04:50:29;;;;;;;29.80;4.60;;;22.50;16.20;;;;;;5067012;28;20456;-72
2022/07/06 04:52:56;;;;;;;31.20;4.37;;;23.20;15.10;;;;;;5054027;28;20482;-72
2022/07/06 04:55:22;;;;;;;29.70;4.20;;;23.70;13.20;;;;;;5061435;28;20458;-72
2022/07/06 04:57:51;;;;;;;30.10;4.30;;;23.70;12.60;;;;;;5047503;28;20677;-71
2022/07/06 05:00:18;;;;;;;30.40;4.13;;;23.40;12.70;;;;;;5045609;28;20484;-72
2022/07/06 05:02:47;;;;;;;38.43;4.70;;;23.30;13.30;;;;;;5048630;28;20478;-71
2022/07/06 05:05:13;;;;;;;31.50;4.57;;;24.10;12.40;;;;;;5044668;28;20528;-72
2022/07/06 05:07:40;;;;;;;30.53;4.17;;;24.90;11.10;;;;;;5042756;28;21177;-72
2022/07/06 05:10:09;;;;;;;30.57;4.80;;;25.90;9.30;;;;;;5047732;28;20469;-72
2022/07/06 05:12:36;;;;;;;29.50;3.63;;;26.80;8.20;;;;;;5053899;28;20955;-71
2022/07/06 05:15:03;;;;;;;29.10;4.27;;;27.50;6.40;;;;;;5047049;28;20470;-72
2022/07/06 05:17:29;;;;;;;31.97;3.63;;;28.20;5.90;;;;;;5046393;28;20486;-71
2022/07/06 05:19:58;;;;;;;28.60;3.53;;;28.80;4.30;;;;;;5054097;28;20461;-72
2022/07/06 05:22:25;;;;;;;28.50;3.47;;;29.50;3.90;;;;;;5050259;28;20478;-71
2022/07/06 05:24:52;;;;;;;28.60;4.00;;;30.20;2.60;;;;;;5046773;28;20453;-73
2022/07/06 05:27:18;;;;;;;29.40;3.40;;;30.80;1.40;;;;;;5043878;28;20576;-72
2022/07/06 05:29:45;;;;;;;26.67;2.90;;;31.30;1.00;;;;;;5054500;28;20470;-71
2022/07/06 05:32:12;;;;;;;27.07;2.97;;;32.00;1.00;;;;;;5048208;28;20480;-72
2022/07/06 05:34:39;;;;;;;27.43;3.10;;;32.50;1.00;;;;;;5046285;28;20481;-72
2022/07/06 05:37:08;;;;;;;26.20;3.43;;;33.00;1.00;;;;;;5043825;28;21015;-71
2022/07/06 05:39:35;;;;;;;25.73;2.70;;;33.70;1.00;;;;;;5054269;28;20473;-72
2022/07/06 05:42:01;;;;;;;26.70;2.70;;;34.30;1.00;;;;;;5058678;28;20465;-72
2022/07/06 05:44:28;;;;;;;27.13;3.27;;;35.00;1.00;;;;;;5068512;28;20499;-73
2022/07/06 05:50:11;;;;;;;26.50;3.30;;;35.50;1.00;;;;;;5067249;28;20491;-72
2022/07/06 05:52:28;;;;;;;27.37;3.67;;;35.20;1.00;;;;;;5063013;28;20443;-73
2022/07/06 05:54:55;;;;;;;25.77;3.63;;;35.70;1.00;;;;;;5066257;28;20687;-72
2022/07/06 05:57:22;;;;;;;26.63;3.37;;;36.50;1.00;;;;;;5047733;28;20493;-71
2022/07/06 05:59:49;;;;;;;25.67;3.30;;;36.90;1.00;;;;;;5045315;28;20465;-73
2022/07/06 06:02:15;;;;;;;27.50;3.40;;;35.90;1.00;;;;;;5056107;28;20469;-73
2022/07/06 06:04:42;;;;;;;26.20;3.23;;;35.80;1.00;;;;;;5054094;28;20464;-71
2022/07/06 06:07:09;;;;;;;26.90;3.70;;;36.50;1.00;;;;;;5061549;28;20491;-72
2022/07/06 06:09:37;;;;;;;26.60;3.57;;;36.40;1.00;;;;;;5048450;28;20468;-71
2022/07/06 06:12:04;;;;;;;24.77;2.73;;;37.20;1.00;;;;;;5064952;28;20462;-72
2022/07/06 06:14:31;;;;;;;24.90;2.90;;;37.40;1.00;;;;;;5044616;28;20470;-72
2022/07/06 06:16:58;;;;;;;25.53;2.53;;;38.10;1.00;;;;;;5045769;28;20482;-72
2022/07/06 06:19:25;;;;;;;25.67;2.97;;;39.00;1.00;;;;;;5044356;28;20458;-72
2022/07/06 06:21:52;;;;;;;26.47;3.10;;;40.00;1.00;;;;;;5066346;28;20461;-72
2022/07/06 06:24:19;;;;;;;24.13;2.60;;;40.60;1.00;;;;;;5066907;28;20477;-72
2022/07/06 06:26:47;;;;;;;26.60;2.93;;;41.20;1.00;;;;;;5056981;28;20477;-72
2022/07/06 06:29:14;;;;;;;24.13;2.77;;;42.00;1.00;;;;;;5058914;28;20477;-72
2022/07/06 06:31:40;;;;;;;23.90;2.80;;;42.30;1.00;;;;;;5058319;28;21044;-72
2022/07/06 06:34:07;;;;;;;25.13;2.90;;;42.70;1.00;;;;;;5044681;28;20461;-73
2022/07/06 06:36:34;;;;;;;24.43;2.50;;;43.30;1.00;;;;;;5067189;28;20488;-72
2022/07/06 06:39:01;;;;;;;30.33;3.00;;;43.90;1.00;;;;;;5063710;28;20468;-73
2022/07/06 06:41:28;;;;;;;24.33;2.60;;;44.60;1.00;;;;;;5048899;28;20831;-72
2022/07/06 06:43:56;;;;;;;22.67;2.30;;;45.30;1.00;;;;;;5052260;28;20527;-73
2022/07/06 06:46:23;;;;;;;22.50;2.27;;;45.70;1.00;;;;;;5056230;28;20496;-74
2022/07/06 06:48:50;;;;;;;22.90;2.40;;;46.10;1.00;;;;;;5067896;28;20556;-73
2022/07/06 06:51:17;;;;;;;22.20;2.10;;;46.60;1.00;;;;;;5047998;28;20461;-73
2022/07/06 06:53:44;;;;;;;23.40;2.50;;;47.10;1.00;;;;;;5067430;28;20463;-73
2022/07/06 06:56:10;;;;;;;21.70;2.13;;;47.60;1.00;;;;;;5068094;28;20491;-72
2022/07/06 06:58:37;;;;;;;22.20;2.47;;;48.00;1.00;;;;;;5047473;28;20471;-73
2022/07/06 07:01:06;;;;;;;21.57;2.37;;;48.20;1.00;;;;;;5048997;28;20500;-73
2022/07/06 07:03:33;;;;;;;22.50;2.37;;;48.50;1.00;;;;;;5050196;28;20914;-73
2022/07/06 07:05:59;;;;;;;23.43;3.20;;;48.90;1.00;;;;;;5067597;28;20849;-73
2022/07/06 07:08:26;;;;;;;21.70;2.07;;;49.30;1.00;;;;;;5048074;28;20489;-73
2022/07/06 07:10:53;;;;;;;21.20;2.30;;;49.70;1.00;;;;;;5064098;28;20483;-73
2022/07/06 07:13:20;;;;;;;23.10;2.53;;;50.00;1.00;;;;;;5054717;28;20457;-73
2022/07/06 07:15:46;;;;;;;21.33;2.50;;;50.50;1.00;;;;;;5056755;28;20478;-73
2022/07/06 07:18:15;;;;;;;22.83;2.50;;;50.80;1.00;;;;;;5064844;28;20467;-73
2022/07/06 07:20:41;;;;;;;23.43;2.30;;;51.00;1.00;;;;;;5050965;28;20954;-73
2022/07/06 07:23:08;;;;;;;20.90;2.30;;;51.40;1.00;;;;;;5049713;28;20484;-74
2022/07/06 07:25:38;;;;;;;21.30;2.20;;;51.50;1.00;;;;;;5044957;28;20484;-73
2022/07/06 07:28:05;;;;;;;21.20;2.27;;;51.70;1.00;;;;;;5069726;28;20464;-73
2022/07/06 07:30:32;;;;;;;21.30;2.30;;;52.00;1.00;;;;;;5042721;28;20461;-73
2022/07/06 07:33:00;;;;;;;20.77;2.07;;;52.20;1.00;;;;;;5059990;28;20454;-73
2022/07/06 07:35:29;;;;;;;23.97;2.70;;;52.40;1.00;;;;;;5066960;28;20464;-73
2022/07/06 07:37:55;;;;;;;21.10;1.90;;;52.60;1.00;;;;;;5069831;28;20467;-73
2022/07/06 07:40:22;;;;;;;21.03;2.60;;;53.00;1.00;;;;;;5052468;28;20471;-73
2022/07/06 07:42:49;;;;;;;20.63;2.00;;;53.10;1.00;;;;;;5047920;28;20976;-74
2022/07/06 07:45:37;;;;;;;20.57;2.20;;;53.40;1.00;;;;;;5060658;28;20941;-74
2022/07/06 07:48:05;;;;;;;20.10;2.00;;;53.80;1.00;;;;;;5070758;28;20493;-73
2022/07/06 07:50:34;;;;;;;20.07;1.90;;;54.10;1.00;;;;;;5055627;28;20464;-73
2022/07/06 07:53:01;;;;;;;20.30;2.50;;;54.10;1.00;;;;;;5063724;28;20474;-73
2022/07/06 07:55:28;;;;;;;22.70;2.20;;;54.10;1.00;;;;;;5051209;28;20472;-73
2022/07/06 07:57:55;;;;;;;19.73;2.00;;;53.70;1.00;;;;;;5070187;28;20470;-73
2022/07/06 08:00:24;;;;;;;21.50;2.03;;;53.40;1.00;;;;;;5051127;28;20461;-73
2022/07/06 08:02:51;;;;;;;19.67;2.00;;;53.40;1.00;;;;;;5058434;28;20460;-73
2022/07/06 08:05:18;;;;;;;20.17;2.40;;;53.50;1.00;;;;;;5047970;28;20461;-73
2022/07/06 08:07:46;;;;;;;20.43;2.20;;;53.70;1.00;;;;;;5070392;28;20467;-73
2022/07/06 08:10:13;;;;;;;24.37;2.53;;;54.30;1.00;;;;;;5070099;28;20949;-73
2022/07/06 08:12:40;;;;;;;20.73;2.40;;;54.90;1.00;;;;;;5064956;28;20463;-74
2022/07/06 08:15:08;;;;;;;20.97;2.30;;;55.00;1.00;;;;;;5055782;28;20548;-74
2022/07/06 08:17:35;;;;;;;19.90;2.10;;;55.00;1.00;;;;;;5067556;28;20550;-72
2022/07/06 08:20:02;;;;;;;22.50;2.20;;;55.30;1.00;;;;;;5048485;28;20458;-72
2022/07/06 08:22:30;;;;;;;20.60;1.83;;;55.70;1.00;;;;;;5065804;28;20464;-73
2022/07/06 08:24:59;;;;;;;19.00;1.97;;;56.10;1.00;;;;;;5059782;28;20551;-73
2022/07/06 08:27:25;;;;;;;18.73;2.00;;;56.40;1.00;;;;;;5061092;28;20480;-72
2022/07/06 08:29:52;;;;;;;19.40;1.70;;;56.50;1.00;;;;;;5056554;28;20467;-73
2022/07/06 08:32:20;;;;;;;21.77;2.03;;;56.30;1.00;;;;;;5067218;28;20476;-73
2022/07/06 08:34:47;;;;;;;20.30;2.00;;;56.50;1.00;;;;;;5067995;28;20518;-73
2022/07/06 08:37:14;;;;;;;19.40;1.97;;;56.70;1.00;;;;;;5054892;28;20551;-72
2022/07/06 08:39:40;;;;;;;19.23;1.87;;;56.40;1.00;;;;;;5069975;28;20467;-72
2022/07/06 08:42:10;;;;;;;18.87;2.20;;;56.10;1.00;;;;;;5069250;28;20460;-73
2022/07/06 08:44:38;;;;;;;19.20;1.97;;;56.00;1.00;;;;;;5055437;28;20492;-73
2022/07/06 08:47:07;;;;;;;19.70;1.80;;;56.40;1.00;;;;;;5049624;28;20485;-73
2022/07/06 08:49:35;;;;;;;19.70;1.93;;;56.70;1.00;;;;;;5062158;28;20462;-73
2022/07/06 08:52:04;;;;;;;18.57;1.90;;;56.80;1.00;;;;;;5059755;28;20464;-73
2022/07/06 08:54:31;;;;;;;19.27;1.73;;;56.90;1.00;;;;;;5069794;28;20460;-72
2022/07/06 08:56:59;;;;;;;19.10;1.83;;;57.20;1.00;;;;;;5054643;28;20894;-72
2022/07/06 08:59:27;;;;;;;19.67;1.90;;;57.50;1.00;;;;;;5061219;28;20461;-72
2022/07/06 09:01:55;;;;;;;19.20;2.17;;;57.70;1.00;;;;;;5055785;28;20497;-73
2022/07/06 09:04:23;;;;;;;18.80;1.83;;;57.80;1.00;;;;;;5049207;28;20497;-72
2022/07/06 09:06:51;;;;;;;21.93;2.33;;;57.80;1.00;;;;;;5038692;28;20489;-72
2022/07/06 09:09:22;;;;;;;19.60;2.20;;;57.60;1.00;;;;;;5060969;28;20460;-72
2022/07/06 09:11:49;;;;;;;19.57;2.13;;;57.70;1.00;;;;;;5073020;28;20505;-72
2022/07/06 09:14:16;;;;;;;19.10;1.80;;;57.20;1.00;;;;;;5070009;28;20194;-71
2022/07/06 09:16:45;;;;;;;19.13;2.10;;;57.40;1.00;;;;;;5066220;28;20710;-71
2022/07/06 09:19:13;;;;;;;19.57;2.10;;;57.50;1.00;;;;;;5043274;28;20465;-71
2022/07/06 09:21:41;;;;;;;20.70;2.20;;;57.40;1.00;;;;;;5063209;28;20457;-71
2022/07/06 09:24:10;;;;;;;18.97;2.00;;;57.30;1.00;;;;;;5040956;28;20590;-72
2022/07/06 09:26:37;;;;;;;21.23;1.80;;;56.70;1.00;;;;;;5067914;28;20480;-72
2022/07/06 09:29:05;;;;;;;19.87;2.30;;;55.70;1.00;;;;;;5048595;28;20469;-72
2022/07/06 09:31:32;;;;;;;25.33;2.23;;;54.20;1.00;;;;;;5055242;28;20469;-72
2022/07/06 09:34:05;;;;;;;21.53;2.17;;;52.30;1.00;;;;;;5068999;28;20484;-71
2022/07/06 09:36:39;;;;;;;21.00;2.20;;;50.30;1.00;;;;;;5062322;28;20516;-71
2022/07/06 09:39:24;;;;;;;21.60;2.73;;;48.20;1.00;;;;;;5050350;28;21012;-73
2022/07/06 09:41:52;;;;;;;23.70;2.60;;;46.20;1.00;;;;;;5062960;28;20520;-72
2022/07/06 09:44:23;;;;;;;22.40;2.50;;;44.50;1.00;;;;;;5049260;28;20855;-72
2022/07/06 09:46:51;;;;;;;23.10;2.50;;;42.80;1.00;;;;;;5050747;28;20488;-72
2022/07/06 09:49:20;;;;;;;25.43;2.93;;;41.60;1.00;;;;;;5047502;28;20503;-72
2022/07/06 09:51:48;;;;;;;30.33;2.97;;;40.50;1.00;;;;;;5063751;28;20551;-72
2022/07/06 09:54:16;;;;;;;23.10;3.03;;;39.50;1.00;;;;;;5064106;28;20489;-72
2022/07/06 09:56:46;;;;;;;24.10;2.40;;;38.70;1.00;;;;;;5067929;28;20896;-72
2022/07/06 09:59:14;;;;;;;24.20;3.07;;;38.00;1.00;;;;;;5059389;28;20553;-72
2022/07/06 10:01:42;;;;;;;25.30;3.10;;;37.20;1.00;;;;;;5051183;28;20470;-72
2022/07/06 10:04:12;;;;;;;25.90;3.13;;;36.40;1.00;;;;;;5050573;28;20494;-71
2022/07/06 10:06:41;;;;;;;23.90;3.20;;;35.80;1.00;;;;;;5053422;28;20485;-72
2022/07/06 10:09:10;;;;;;;24.90;3.00;;;35.30;1.00;;;;;;5067777;28;20548;-72
2022/07/06 10:11:39;;;;;;;28.20;3.10;;;34.90;1.00;;;;;;5051865;28;20462;-71
2022/07/06 10:14:08;;;;;;;24.30;2.70;;;34.50;1.00;;;;;;5063769;28;20449;-72
2022/07/06 10:16:37;;;;;;;25.00;3.03;;;34.10;1.00;;;;;;5068013;28;20716;-72
2022/07/06 10:19:06;;;;;;;25.63;3.23;;;33.80;1.00;;;;;;5061133;28;20457;-73
2022/07/06 10:21:34;;;;;;;27.57;3.50;;;33.30;1.00;;;;;;5050960;28;20545;-72
2022/07/06 10:24:03;;;;;;;27.43;3.37;;;32.90;1.00;;;;;;5067935;28;20481;-73
2022/07/06 10:26:30;;;;;;;25.90;3.57;;;32.60;1.00;;;;;;5054193;28;20508;-72
2022/07/06 10:29:00;;;;;;;24.90;3.53;;;32.30;1.00;;;;;;5059241;28;20461;-72
2022/07/06 10:31:28;;;;;;;25.63;3.70;;;32.10;1.00;;;;;;5049023;28;20504;-71
2022/07/06 10:33:56;;;;;;;26.33;3.50;;;32.00;1.00;;;;;;5061377;28;20461;-73
2022/07/06 10:36:24;;;;;;;26.07;4.07;;;31.70;1.00;;;;;;5067616;28;20856;-72
2022/07/06 10:38:52;;;;;;;26.30;3.80;;;31.60;1.00;;;;;;5067856;28;20457;-71
2022/07/06 10:44:46;;;;;;;25.90;3.50;;;31.30;1.00;;;;;;5051341;28;20490;-71
2022/07/06 10:47:13;;;;;;;25.50;3.50;;;31.30;1.00;;;;;;5047009;28;20533;-72
2022/07/06 10:49:49;;;;;;;25.23;3.60;;;31.30;1.00;;;;;;5065857;28;20843;-71
2022/07/06 10:52:18;;;;;;;26.53;3.57;;;31.20;1.00;;;;;;5056915;28;20812;-72
2022/07/06 10:54:47;;;;;;;26.40;3.93;;;31.00;1.00;;;;;;5065823;28;20972;-73
2022/07/06 10:57:15;;;;;;;26.73;3.87;;;30.90;1.00;;;;;;5071697;28;20491;-71
2022/07/06 11:00:00;;;;;;;26.80;4.00;;;30.90;1.00;;;;;;5058526;28;20468;-72
2022/07/06 11:02:39;;;;;;;26.03;3.63;;;30.80;1.00;;;;;;5045178;28;20484;-72
2022/07/06 11:05:12;;;;;;;26.40;3.10;;;30.60;1.00;;;;;;5064537;28;20473;-71
2022/07/06 11:07:50;;;;;;;26.27;3.50;;;30.60;1.00;;;;;;5074463;28;20509;-71
2022/07/06 11:10:17;;;;;;;25.73;3.43;;;30.70;1.00;;;;;;5071032;28;20980;-72
2022/07/06 11:12:45;;;;;;;27.50;3.73;;;30.80;1.00;;;;;;5062772;28;20466;-72
2022/07/06 11:15:12;;;;;;;25.43;3.37;;;30.80;1.00;;;;;;5046277;28;21053;-72
2022/07/06 11:18:06;;;;;;;26.50;3.20;;;30.80;1.00;;;;;;5046934;28;20485;-72
2022/07/06 11:20:32;;;;;;;26.70;3.07;;;30.70;1.00;;;;;;5066899;28;20464;-71
2022/07/06 11:23:00;;;;;;;25.67;3.33;;;30.50;1.00;;;;;;5063819;28;20461;-72
2022/07/06 11:25:27;;;;;;;28.17;3.10;;;30.30;1.00;;;;;;5061553;28;20484;-72
2022/07/06 11:27:54;;;;;;;26.63;3.20;;;30.30;1.00;;;;;;5071360;28;20464;-73
2022/07/06 11:30:22;;;;;;;26.10;3.27;;;30.30;1.00;;;;;;5070803;28;20471;-70
2022/07/06 11:32:50;;;;;;;26.00;3.60;;;30.20;1.00;;;;;;5069389;28;20479;-71
2022/07/06 11:35:22;;;;;;;25.93;3.10;;;30.20;1.00;;;;;;5042066;28;20462;-71
2022/07/06 11:37:49;;;;;;;26.87;3.00;;;30.10;1.00;;;;;;5062942;28;20456;-72
2022/07/06 11:40:19;;;;;;;25.87;2.87;;;30.20;1.00;;;;;;5070311;28;20457;-71
2022/07/06 11:42:54;;;;;;;26.00;3.20;;;30.20;1.00;;;;;;5057699;28;20457;-71
2022/07/06 11:45:26;;;;;;;25.97;3.17;;;30.20;1.00;;;;;;5051390;28;20477;-71
2022/07/06 11:48:10;;;;;;;25.50;2.97;;;30.10;1.00;;;;;;5061686;28;20462;-72
2022/07/06 11:50:37;;;;;;;26.10;3.87;;;30.00;1.00;;;;;;5066057;28;20456;-71
2022/07/06 11:53:04;;;;;;;25.40;3.00;;;30.00;1.00;;;;;;5042011;28;20904;-71
2022/07/06 11:55:31;;;;;;;25.23;3.00;;;29.90;1.00;;;;;;5053107;28;20555;-71
2022/07/06 11:58:00;;;;;;;26.00;3.40;;;29.80;1.00;;;;;;5061088;28;20459;-72
2022/07/06 12:00:27;;;;;;;29.60;3.60;;;29.70;1.00;;;;;;5065053;28;20462;-71
2022/07/06 12:03:02;;;;;;;27.33;3.83;;;29.50;1.00;;;;;;5070633;28;20465;-71
2022/07/06 12:05:32;;;;;;;25.90;3.43;;;29.40;1.00;;;;;;5051562;28;20458;-72
2022/07/06 12:08:05;;;;;;;27.03;3.20;;;29.30;1.00;;;;;;5065120;28;20462;-72
2022/07/06 12:10:34;;;;;;;25.57;3.10;;;29.20;1.00;;;;;;5064040;28;20460;-71
2022/07/06 12:13:03;;;;;;;26.70;3.43;;;29.00;1.00;;;;;;5055942;28;20465;-71
2022/07/06 12:15:30;;;;;;;26.87;3.40;;;29.00;1.30;;;;;;5062282;28;20462;-71
2022/07/06 12:17:57;;;;;;;26.17;3.10;;;28.90;1.80;;;;;;5061086;28;20476;-71
2022/07/06 12:20:25;;;;;;;26.13;3.50;;;28.80;2.30;;;;;;5069591;28;20492;-71
2022/07/06 12:23:02;;;;;;;27.47;3.17;;;28.70;2.40;;;;;;5052776;28;20463;-72
2022/07/06 12:25:32;;;;;;;32.47;3.60;;;28.60;1.70;;;;;;5064619;28;20489;-71
2022/07/06 12:27:59;;;;;;;26.30;3.30;;;28.60;1.80;;;;;;5057754;28;20464;-71
2022/07/06 12:30:25;;;;;;;26.87;3.40;;;28.50;1.50;;;;;;5069712;28;21007;-72
2022/07/06 12:33:14;;;;;;;27.63;3.60;;;28.50;1.70;;;;;;5048956;28;20462;-72
2022/07/06 12:35:42;;;;;;;25.83;3.33;;;28.50;1.00;;;;;;5051489;28;20530;-72
2022/07/06 12:38:09;;;;;;;26.37;3.30;;;28.40;1.00;;;;;;5051027;28;20837;-72
2022/07/06 12:40:37;;;;;;;26.63;3.00;;;28.30;1.40;;;;;;5055816;28;20454;-71
2022/07/06 12:43:04;;;;;;;28.80;3.50;;;28.40;2.80;;;;;;5051120;28;20978;-71
2022/07/06 12:45:32;;;;;;;25.63;3.00;;;28.40;1.00;;;;;;5057429;28;20489;-71
2022/07/06 12:48:00;;;;;;;28.40;3.23;;;28.40;1.20;;;;;;5053328;28;20520;-72
2022/07/06 12:50:33;;;;;;;25.67;3.00;;;28.40;1.00;;;;;;5069455;28;20595;-73
2022/07/06 12:53:02;;;;;;;25.87;3.10;;;28.40;1.90;;;;;;5065929;28;20550;-73
2022/07/06 12:55:30;;;;;;;25.87;3.30;;;28.40;1.70;;;;;;5047240;28;20461;-73